Time;durP1;ratioP1;P1;durP2;ratioP2;P2;SDS_P1;SDS_P2;PMS_P1;PMS_P2;Temp;Humidity;BMP_temperature;BMP_pressure;BME280_temperature;BME280_humidity;BME280_pressure;Samples;Min_cycle;Max_cycle;Signal;HPM_P1;HPM_P2
2021/11/10 00:02:24;;;;;;;13.10;6.10;;;3.10;99.90;;;;;;5015553;28;20033;-38
2021/11/10 00:04:50;;;;;;;10.18;6.15;;;3.10;99.90;;;;;;5015783;28;20030;-37
2021/11/10 00:07:16;;;;;;;8.70;5.03;;;3.10;99.90;;;;;;5015682;28;20137;-37
2021/11/10 00:09:41;;;;;;;6.95;5.00;;;3.10;99.90;;;;;;5015677;28;20199;-41
2021/11/10 00:12:07;;;;;;;10.73;6.75;;;3.10;99.90;;;;;;5014286;28;20126;-40
2021/11/10 00:14:32;;;;;;;16.13;7.10;;;3.20;99.90;;;;;;5015085;28;20049;-42
2021/11/10 00:16:58;;;;;;;13.38;6.07;;;3.20;99.90;;;;;;5014423;28;20079;-37
2021/11/10 00:19:24;;;;;;;9.98;6.13;;;3.20;99.90;;;;;;5015178;28;20022;-37
2021/11/10 00:21:50;;;;;;;10.95;6.53;;;3.20;99.90;;;;;;5015515;28;20030;-37
2021/11/10 00:24:16;;;;;;;13.63;6.28;;;3.30;99.90;;;;;;5015432;28;20038;-37
2021/11/10 00:26:41;;;;;;;13.35;6.60;;;3.30;99.90;;;;;;5013956;28;20065;-37
2021/11/10 00:29:07;;;;;;;11.18;7.07;;;3.30;99.90;;;;;;5015276;28;20044;-37
2021/11/10 00:31:32;;;;;;;14.35;5.93;;;3.30;99.90;;;;;;5015048;28;20064;-37
2021/11/10 00:33:58;;;;;;;11.05;5.95;;;3.30;99.90;;;;;;5015375;28;20033;-40
2021/11/10 00:36:23;;;;;;;11.18;5.60;;;3.30;99.90;;;;;;5014999;28;20033;-39
2021/11/10 00:38:49;;;;;;;9.40;5.32;;;3.30;99.90;;;;;;5015129;28;20065;-38
2021/11/10 00:41:14;;;;;;;12.98;6.30;;;3.30;99.90;;;;;;5013860;28;20115;-37
2021/11/10 00:43:40;;;;;;;12.10;6.20;;;3.30;99.90;;;;;;5014838;28;20029;-38
2021/11/10 00:46:06;;;;;;;13.07;6.07;;;3.20;99.90;;;;;;5015049;28;20030;-37
2021/11/10 00:48:32;;;;;;;11.02;5.80;;;3.20;99.90;;;;;;5014910;28;20076;-37
2021/11/10 00:50:57;;;;;;;9.25;5.47;;;3.20;99.90;;;;;;5014938;28;20507;-38
2021/11/10 00:53:23;;;;;;;12.27;6.38;;;3.10;99.90;;;;;;5014800;28;20034;-37
2021/11/10 00:55:48;;;;;;;8.88;4.68;;;3.20;99.90;;;;;;5014814;28;20105;-40
2021/11/10 00:58:14;;;;;;;11.00;6.25;;;3.10;99.90;;;;;;5013345;28;20030;-42
2021/11/10 01:00:40;;;;;;;8.45;5.18;;;3.10;99.90;;;;;;5014666;28;20033;-39
2021/11/10 01:03:06;;;;;;;8.07;4.53;;;3.10;99.90;;;;;;5014663;28;20033;-40
2021/11/10 01:05:34;;;;;;;12.13;5.75;;;3.10;99.90;;;;;;5014808;28;20428;-40
2021/11/10 01:08:00;;;;;;;11.70;6.10;;;3.00;99.90;;;;;;5014639;28;20025;-38
2021/11/10 01:10:26;;;;;;;13.23;6.53;;;2.90;99.90;;;;;;5014533;28;20037;-43
2021/11/10 01:12:52;;;;;;;11.90;5.60;;;2.90;99.90;;;;;;5011834;28;20493;-43
2021/11/10 01:15:19;;;;;;;13.95;6.75;;;2.80;99.90;;;;;;5014373;28;20065;-38
2021/11/10 01:17:44;;;;;;;10.77;5.95;;;2.70;99.90;;;;;;5014182;28;20024;-44
2021/11/10 01:20:12;;;;;;;7.13;4.43;;;2.70;99.90;;;;;;5014266;28;20022;-41
2021/11/10 01:22:38;;;;;;;11.45;5.78;;;2.60;99.90;;;;;;5014173;28;20040;-38
2021/11/10 01:25:05;;;;;;;10.55;6.05;;;2.60;99.90;;;;;;5014292;28;20025;-38
2021/11/10 01:27:31;;;;;;;9.73;5.97;;;2.50;99.90;;;;;;5012453;28;20030;-42
2021/11/10 01:29:57;;;;;;;10.70;6.28;;;2.50;99.90;;;;;;5014120;28;20104;-40
2021/11/10 01:32:22;;;;;;;12.15;5.80;;;2.40;99.90;;;;;;5014035;28;20060;-40
2021/11/10 01:34:48;;;;;;;10.77;5.97;;;2.30;99.90;;;;;;5013948;28;20022;-37
2021/11/10 01:37:14;;;;;;;12.35;6.53;;;2.30;99.90;;;;;;5014037;28;20022;-37
2021/11/10 01:39:39;;;;;;;9.85;5.68;;;2.30;99.90;;;;;;5013911;28;20064;-40
2021/11/10 01:42:06;;;;;;;13.98;6.68;;;2.20;99.90;;;;;;5012501;28;20022;-41
2021/11/10 01:44:33;;;;;;;12.48;6.70;;;2.20;99.90;;;;;;5013884;28;20390;-37
2021/11/10 01:47:03;;;;;;;10.82;6.07;;;2.10;99.90;;;;;;5013853;28;20030;-40
2021/11/10 01:49:29;;;;;;;10.45;5.75;;;2.10;99.90;;;;;;5013800;28;20026;-38
2021/11/10 01:51:56;;;;;;;14.07;7.15;;;2.00;99.90;;;;;;5013825;28;20026;-38
2021/11/10 01:54:25;;;;;;;16.52;6.68;;;2.00;99.90;;;;;;5013637;28;20058;-42
2021/11/10 01:56:51;;;;;;;9.98;5.63;;;1.90;99.90;;;;;;5012376;28;20029;-37
2021/11/10 01:59:42;;;;;;;10.07;5.22;;;1.90;99.90;;;;;;5013670;28;20466;-37
2021/11/10 02:02:11;;;;;;;9.98;5.63;;;1.90;99.90;;;;;;5013721;28;20040;-40
2021/11/10 02:04:39;;;;;;;9.35;5.93;;;1.80;99.90;;;;;;5013567;28;20156;-40
2021/11/10 02:07:06;;;;;;;13.75;6.18;;;1.80;99.90;;;;;;5013463;28;20096;-37
2021/11/10 02:09:31;;;;;;;9.13;5.15;;;1.80;99.90;;;;;;5013460;28;20219;-37
2021/11/10 02:11:58;;;;;;;14.40;6.53;;;1.70;99.90;;;;;;5012215;28;20426;-37
2021/11/10 02:14:26;;;;;;;9.75;5.15;;;1.70;99.90;;;;;;5013565;28;20026;-38
2021/11/10 02:16:54;;;;;;;12.43;5.30;;;1.70;99.90;;;;;;5013317;28;20034;-37
2021/11/10 02:19:21;;;;;;;10.57;6.00;;;1.60;99.90;;;;;;5013340;28;20371;-37
2021/11/10 02:21:51;;;;;;;14.98;6.07;;;1.60;99.90;;;;;;5013092;28;20053;-37
2021/11/10 02:24:18;;;;;;;14.68;5.80;;;1.60;99.90;;;;;;5013307;28;20029;-37
2021/11/10 02:26:45;;;;;;;11.02;6.55;;;1.50;99.90;;;;;;5011956;28;20397;-37
2021/11/10 02:29:15;;;;;;;13.05;5.90;;;1.50;99.90;;;;;;5013209;28;20026;-39
2021/11/10 02:31:42;;;;;;;15.63;6.97;;;1.50;99.90;;;;;;5012919;28;20109;-38
2021/11/10 02:34:08;;;;;;;12.13;5.85;;;1.50;99.90;;;;;;5012938;28;20033;-39
2021/11/10 02:36:34;;;;;;;10.52;5.07;;;1.40;99.90;;;;;;5013033;28;20030;-37
2021/11/10 02:39:02;;;;;;;12.93;6.05;;;1.40;99.90;;;;;;5012465;28;20022;-39
2021/11/10 02:41:29;;;;;;;14.05;7.28;;;1.40;99.90;;;;;;5012052;28;20536;-37
2021/11/10 02:43:55;;;;;;;12.25;6.70;;;1.30;99.90;;;;;;5012958;28;20053;-42
2021/11/10 02:46:21;;;;;;;13.52;6.65;;;1.30;99.90;;;;;;5013004;28;20033;-40
2021/11/10 02:48:46;;;;;;;13.43;6.20;;;1.30;99.90;;;;;;5012736;28;20036;-39
2021/11/10 02:51:12;;;;;;;6.55;3.90;;;1.20;99.90;;;;;;5012972;28;20026;-40
2021/11/10 02:53:37;;;;;;;9.77;5.03;;;1.20;99.90;;;;;;5012979;28;20034;-40
2021/11/10 02:56:03;;;;;;;12.25;5.93;;;1.20;99.90;;;;;;5026824;28;20022;-42
2021/11/10 02:58:34;;;;;;;12.40;6.40;;;1.20;99.90;;;;;;5012847;28;20018;-38
2021/11/10 03:01:00;;;;;;;13.63;6.22;;;1.20;99.90;;;;;;5012822;28;20521;-40
2021/11/10 03:03:25;;;;;;;10.55;5.15;;;1.10;99.90;;;;;;5012657;28;20026;-40
2021/11/10 03:05:52;;;;;;;13.25;6.47;;;1.10;99.90;;;;;;5012787;28;20636;-39
2021/11/10 03:08:19;;;;;;;14.10;7.18;;;1.10;99.90;;;;;;5012843;28;20018;-39
2021/11/10 03:10:46;;;;;;;13.80;7.32;;;1.10;99.90;;;;;;5012498;28;20026;-39
2021/11/10 03:13:12;;;;;;;15.43;6.90;;;1.10;99.90;;;;;;5011400;28;20056;-38
2021/11/10 03:15:39;;;;;;;12.65;6.80;;;1.00;99.90;;;;;;5012551;28;20034;-41
2021/11/10 03:18:05;;;;;;;16.95;8.02;;;1.00;99.90;;;;;;5012557;28;20022;-40
2021/11/10 03:20:31;;;;;;;15.55;7.60;;;1.00;99.90;;;;;;5012677;28;20021;-37
2021/11/10 03:22:56;;;;;;;13.95;6.50;;;1.00;99.90;;;;;;5012568;28;20026;-40
2021/11/10 03:25:22;;;;;;;9.85;6.40;;;0.90;99.90;;;;;;5012591;28;20101;-40
2021/11/10 03:27:47;;;;;;;13.52;6.22;;;0.90;99.90;;;;;;5011273;28;20042;-38
2021/11/10 03:30:13;;;;;;;13.50;5.38;;;0.90;99.90;;;;;;5012720;28;20038;-39
2021/11/10 03:32:41;;;;;;;9.40;5.45;;;0.90;99.90;;;;;;5012179;28;20049;-38
2021/11/10 03:35:08;;;;;;;11.32;6.28;;;0.90;99.90;;;;;;5012464;28;20030;-38
2021/11/10 03:37:35;;;;;;;12.40;6.07;;;0.90;99.90;;;;;;5012570;28;20037;-41
2021/11/10 03:40:01;;;;;;;13.00;6.15;;;0.90;99.90;;;;;;5012420;28;20030;-38
2021/11/10 03:42:26;;;;;;;13.55;6.80;;;0.80;99.90;;;;;;5011223;28;20149;-39
2021/11/10 03:44:52;;;;;;;11.48;6.03;;;0.80;99.90;;;;;;5012335;28;20041;-40
2021/11/10 03:47:17;;;;;;;15.18;6.05;;;0.80;99.90;;;;;;5012273;28;20037;-38
2021/11/10 03:49:43;;;;;;;12.00;5.88;;;0.80;99.90;;;;;;5012882;28;20033;-37
2021/11/10 03:52:08;;;;;;;14.70;6.95;;;0.80;99.90;;;;;;5016056;28;20112;-38
2021/11/10 03:54:34;;;;;;;11.23;6.18;;;0.70;99.90;;;;;;5015938;28;20033;-38
2021/11/10 03:56:59;;;;;;;13.25;6.22;;;0.70;99.90;;;;;;5014616;28;20064;-37
2021/11/10 03:59:25;;;;;;;13.02;6.30;;;0.70;99.90;;;;;;5015872;28;20021;-40
2021/11/10 04:01:50;;;;;;;12.02;6.40;;;0.70;99.90;;;;;;5015686;28;20026;-37
2021/11/10 04:04:16;;;;;;;13.40;6.88;;;0.70;99.90;;;;;;5015954;28;20056;-37
2021/11/10 04:06:42;;;;;;;11.40;6.13;;;0.70;99.90;;;;;;5015748;28;20037;-37
2021/11/10 04:09:07;;;;;;;12.90;7.13;;;0.60;99.90;;;;;;5014451;28;20046;-37
2021/11/10 04:11:33;;;;;;;14.60;7.30;;;0.60;99.90;;;;;;5014363;28;20021;-37
2021/11/10 04:13:59;;;;;;;17.98;7.00;;;0.60;99.90;;;;;;5015242;28;20033;-37
2021/11/10 04:16:24;;;;;;;15.73;8.00;;;0.60;99.90;;;;;;5015421;28;20097;-38
2021/11/10 04:18:52;;;;;;;9.70;5.60;;;0.60;99.90;;;;;;5015224;28;20109;-40
2021/11/10 04:21:19;;;;;;;15.48;7.45;;;0.60;99.90;;;;;;5015369;28;20133;-37
2021/11/10 04:23:46;;;;;;;11.25;6.13;;;0.60;99.90;;;;;;5015340;28;20026;-37
2021/11/10 04:26:11;;;;;;;11.13;5.82;;;0.50;99.90;;;;;;5014212;28;20030;-37
2021/11/10 04:28:37;;;;;;;11.63;5.85;;;0.50;99.90;;;;;;5015357;28;20049;-37
2021/11/10 04:31:03;;;;;;;17.55;7.72;;;0.60;99.90;;;;;;5015077;28;20088;-41
2021/11/10 04:33:28;;;;;;;10.77;6.43;;;0.50;99.90;;;;;;5014942;28;20458;-42
2021/11/10 04:35:54;;;;;;;15.90;6.43;;;0.50;99.90;;;;;;5015133;28;20026;-38
2021/11/10 04:38:20;;;;;;;10.32;5.20;;;0.50;99.90;;;;;;5015170;28;20030;-42
2021/11/10 04:40:47;;;;;;;16.25;7.45;;;0.50;99.90;;;;;;5014766;28;20026;-38
2021/11/10 04:43:13;;;;;;;12.82;7.18;;;0.50;99.90;;;;;;5014293;28;20069;-38
2021/11/10 04:45:39;;;;;;;13.00;8.25;;;0.40;99.90;;;;;;5014843;28;20025;-40
2021/11/10 04:48:06;;;;;;;21.70;9.50;;;0.50;99.90;;;;;;5014680;28;20034;-38
2021/11/10 04:50:33;;;;;;;14.98;8.27;;;0.50;99.90;;;;;;5014896;28;20042;-40
2021/11/10 04:52:59;;;;;;;14.65;6.75;;;0.40;99.90;;;;;;5014845;28;20117;-39
2021/11/10 04:55:25;;;;;;;17.65;8.43;;;0.40;99.90;;;;;;5014847;28;20072;-37
2021/11/10 04:57:51;;;;;;;17.67;9.20;;;0.40;99.90;;;;;;5013725;28;20026;-37
2021/11/10 05:00:16;;;;;;;15.70;8.93;;;0.40;99.90;;;;;;5014664;28;20022;-37
2021/11/10 05:02:42;;;;;;;18.08;7.75;;;0.40;99.90;;;;;;5023996;28;20025;-41
2021/11/10 05:05:08;;;;;;;14.77;6.90;;;0.50;99.90;;;;;;5034187;28;20026;-38
2021/11/10 05:07:34;;;;;;;16.33;7.82;;;0.40;99.90;;;;;;5034209;28;20056;-37
2021/11/10 05:10:01;;;;;;;16.52;7.80;;;0.50;99.90;;;;;;5034033;28;20507;-37
2021/11/10 05:12:26;;;;;;;14.60;8.38;;;0.40;99.90;;;;;;5033313;28;20061;-37
2021/11/10 05:14:53;;;;;;;13.43;7.80;;;0.50;99.90;;;;;;5033800;28;20489;-38
2021/11/10 05:17:22;;;;;;;10.52;5.75;;;0.50;99.90;;;;;;5034045;28;20032;-39
2021/11/10 05:19:47;;;;;;;14.30;7.03;;;0.50;99.90;;;;;;5033923;28;20089;-40
2021/11/10 05:22:14;;;;;;;14.43;8.07;;;0.50;99.90;;;;;;5034087;28;20022;-37
2021/11/10 05:24:40;;;;;;;11.70;6.55;;;0.50;99.90;;;;;;5033892;28;20032;-38
2021/11/10 05:27:06;;;;;;;18.48;9.18;;;0.50;99.90;;;;;;5032859;28;20033;-38
2021/11/10 05:29:31;;;;;;;21.63;8.25;;;0.50;99.90;;;;;;5033689;28;20029;-39
2021/11/10 05:31:57;;;;;;;16.55;8.25;;;0.50;99.90;;;;;;5033500;28;20468;-38
2021/11/10 05:34:23;;;;;;;15.45;7.93;;;0.50;99.90;;;;;;5033691;28;20037;-38
2021/11/10 05:36:49;;;;;;;16.50;8.10;;;0.50;99.90;;;;;;5033432;28;20118;-37
2021/11/10 05:39:16;;;;;;;22.48;9.23;;;0.50;99.90;;;;;;5033517;28;20126;-40
2021/11/10 05:41:45;;;;;;;18.38;8.93;;;0.40;99.90;;;;;;5032720;28;20083;-38
2021/11/10 05:44:11;;;;;;;23.63;10.52;;;0.40;99.90;;;;;;5033245;28;20029;-37
2021/11/10 05:46:37;;;;;;;18.77;9.05;;;0.40;99.90;;;;;;5033493;28;20048;-36
2021/11/10 05:49:03;;;;;;;16.00;8.48;;;0.40;99.90;;;;;;5033284;28;20026;-37
2021/11/10 05:51:29;;;;;;;18.73;8.80;;;0.40;99.90;;;;;;5033332;28;20032;-37
2021/11/10 05:53:55;;;;;;;14.57;7.72;;;0.40;99.90;;;;;;5033134;28;20030;-37
2021/11/10 05:56:22;;;;;;;16.90;8.38;;;0.30;99.90;;;;;;5032036;28;20466;-37
2021/11/10 05:58:49;;;;;;;18.83;9.95;;;0.30;99.90;;;;;;5033398;28;20025;-38
2021/11/10 06:01:15;;;;;;;19.10;9.23;;;0.30;99.90;;;;;;5033236;28;20103;-37
2021/11/10 06:03:41;;;;;;;15.85;8.57;;;0.30;99.90;;;;;;5033298;28;20421;-37
2021/11/10 06:06:06;;;;;;;19.23;10.00;;;0.30;99.90;;;;;;5032006;28;20037;-37
2021/11/10 06:08:36;;;;;;;18.25;9.13;;;0.30;99.90;;;;;;5033229;28;20060;-38
2021/11/10 06:11:06;;;;;;;21.00;9.27;;;0.30;99.90;;;;;;5026633;28;20124;-37
2021/11/10 06:13:31;;;;;;;16.70;8.23;;;0.30;99.90;;;;;;5032367;28;20033;-37
2021/11/10 06:15:57;;;;;;;17.83;9.40;;;0.30;99.90;;;;;;5033024;28;20022;-37
2021/11/10 06:18:22;;;;;;;16.48;8.15;;;0.30;99.90;;;;;;5033016;28;20025;-37
2021/11/10 06:20:48;;;;;;;14.43;7.63;;;0.40;99.90;;;;;;5032981;28;20046;-40
2021/11/10 06:23:13;;;;;;;22.40;10.05;;;0.40;99.90;;;;;;5032968;28;20024;-39
2021/11/10 06:25:39;;;;;;;14.35;7.10;;;0.40;99.90;;;;;;5032686;28;20168;-38
2021/11/10 06:28:05;;;;;;;17.77;8.30;;;0.40;99.90;;;;;;5031589;28;20030;-42
2021/11/10 06:30:30;;;;;;;18.67;8.80;;;0.40;99.90;;;;;;5032355;28;20026;-37
2021/11/10 06:32:57;;;;;;;19.35;9.82;;;0.40;99.90;;;;;;5032748;28;20092;-38
2021/11/10 06:35:22;;;;;;;16.55;8.80;;;0.40;99.90;;;;;;5032792;28;20108;-40
2021/11/10 06:37:48;;;;;;;18.73;8.88;;;0.50;99.90;;;;;;5032873;28;20524;-37
2021/11/10 06:40:15;;;;;;;21.08;10.70;;;0.50;99.90;;;;;;5032606;28;20025;-37
2021/11/10 06:42:40;;;;;;;18.40;9.88;;;0.50;99.90;;;;;;5031874;28;20026;-38
2021/11/10 06:45:06;;;;;;;18.20;9.32;;;0.50;99.90;;;;;;5032691;28;20025;-38
2021/11/10 06:47:33;;;;;;;23.35;9.75;;;0.60;99.90;;;;;;5032750;28;20033;-39
2021/11/10 06:49:58;;;;;;;18.63;9.20;;;0.60;99.90;;;;;;5032653;28;20025;-38
2021/11/10 06:52:24;;;;;;;18.02;8.30;;;0.60;99.90;;;;;;5032642;28;20392;-37
2021/11/10 06:54:50;;;;;;;16.08;7.72;;;0.70;99.90;;;;;;5032433;28;20021;-38
2021/11/10 06:57:17;;;;;;;20.08;9.55;;;0.70;99.90;;;;;;5031339;28;20017;-38
2021/11/10 06:59:43;;;;;;;41.30;14.50;;;0.80;99.90;;;;;;5032561;28;20017;-38
2021/11/10 07:02:09;;;;;;;63.67;20.92;;;0.90;99.90;;;;;;5032452;28;20093;-39
2021/11/10 07:04:36;;;;;;;50.10;18.05;;;0.90;99.90;;;;;;5032599;28;20099;-37
2021/11/10 07:07:02;;;;;;;46.13;20.08;;;1.00;99.90;;;;;;5032510;28;20068;-37
2021/11/10 07:09:28;;;;;;;38.85;17.42;;;1.10;99.90;;;;;;5032414;28;20033;-38
2021/11/10 07:11:53;;;;;;;22.40;11.82;;;1.10;99.90;;;;;;5031599;28;20037;-42
2021/11/10 07:14:19;;;;;;;21.17;12.07;;;1.20;99.90;;;;;;5032125;28;20056;-39
2021/11/10 07:16:45;;;;;;;22.75;10.82;;;1.30;99.90;;;;;;5032351;28;20030;-39
2021/11/10 07:19:10;;;;;;;26.67;11.77;;;1.30;99.90;;;;;;5032246;28;20112;-38
2021/11/10 07:21:35;;;;;;;26.45;13.05;;;1.40;99.90;;;;;;5032364;28;20013;-37
2021/11/10 07:24:01;;;;;;;22.65;11.27;;;1.50;99.90;;;;;;5032100;28;20057;-39
2021/11/10 07:26:27;;;;;;;27.33;12.68;;;1.70;99.90;;;;;;5034308;28;20036;-38
2021/11/10 07:28:53;;;;;;;23.08;11.48;;;1.80;99.90;;;;;;5036246;28;20032;-40
2021/11/10 07:31:19;;;;;;;19.30;11.70;;;2.00;99.90;;;;;;5036150;28;20509;-39
2021/11/10 07:33:44;;;;;;;19.77;10.52;;;2.20;99.90;;;;;;5035957;28;20524;-39
2021/11/10 07:36:10;;;;;;;18.50;11.18;;;2.40;99.90;;;;;;5036060;28;20022;-39
2021/11/10 07:38:41;;;;;;;16.60;9.60;;;2.60;99.90;;;;;;5036030;28;20032;-38
2021/11/10 07:41:11;;;;;;;19.55;9.43;;;2.70;99.90;;;;;;5034672;28;20032;-39
2021/11/10 07:43:36;;;;;;;16.30;9.30;;;2.80;99.90;;;;;;5036002;28;20029;-39
2021/11/10 07:46:14;;;;;;;15.63;8.88;;;2.90;99.90;;;;;;5035856;28;20156;-38
2021/11/10 07:48:42;;;;;;;13.95;8.07;;;3.10;99.90;;;;;;5036001;28;20068;-38
2021/11/10 07:51:08;;;;;;;13.32;7.65;;;3.30;99.90;;;;;;5035649;28;20026;-40
2021/11/10 07:53:35;;;;;;;15.40;8.27;;;3.40;99.90;;;;;;5035658;28;20045;-40
2021/11/10 07:56:00;;;;;;;16.20;9.10;;;3.60;99.90;;;;;;5034553;28;20586;-37
2021/11/10 07:58:26;;;;;;;16.98;8.65;;;3.80;99.90;;;;;;5035592;28;20109;-38
2021/11/10 08:00:52;;;;;;;10.10;6.80;;;3.90;99.90;;;;;;5035737;28;20473;-40
2021/11/10 08:03:17;;;;;;;13.75;7.93;;;4.10;99.90;;;;;;5035810;28;20026;-38
2021/11/10 08:05:43;;;;;;;11.82;7.05;;;4.40;99.90;;;;;;5035534;28;20388;-38
2021/11/10 08:08:08;;;;;;;8.80;6.10;;;4.60;99.90;;;;;;5035477;28;20026;-41
2021/11/10 08:10:34;;;;;;;13.25;7.18;;;4.90;99.90;;;;;;5035511;28;20029;-42
2021/11/10 08:12:59;;;;;;;12.27;7.65;;;5.10;99.90;;;;;;5034221;28;20042;-43
2021/11/10 08:15:25;;;;;;;12.55;7.78;;;5.40;99.90;;;;;;5035237;28;20156;-42
2021/11/10 08:17:51;;;;;;;13.18;7.47;;;5.60;99.90;;;;;;5035393;28;20476;-39
2021/11/10 08:20:17;;;;;;;10.98;7.82;;;5.70;99.90;;;;;;5035227;28;20033;-41
2021/11/10 08:22:45;;;;;;;13.32;8.02;;;5.90;99.90;;;;;;5035260;28;20113;-40
2021/11/10 08:25:13;;;;;;;10.63;7.38;;;6.00;99.90;;;;;;5035286;28;20441;-38
2021/11/10 08:27:39;;;;;;;12.20;7.05;;;6.10;99.90;;;;;;5033791;28;20021;-39
2021/11/10 08:30:07;;;;;;;10.48;6.68;;;6.30;99.90;;;;;;5035229;28;20026;-40
2021/11/10 08:32:34;;;;;;;14.02;8.60;;;6.40;99.90;;;;;;5034875;28;20536;-39
2021/11/10 08:35:00;;;;;;;11.20;7.05;;;6.60;99.90;;;;;;5034896;28;20029;-39
2021/11/10 08:37:27;;;;;;;16.17;8.65;;;6.70;99.90;;;;;;5033863;28;20061;-41
2021/11/10 08:39:52;;;;;;;16.83;9.15;;;6.80;99.90;;;;;;5034952;28;20060;-40
2021/11/10 08:42:18;;;;;;;14.27;8.05;;;6.90;99.90;;;;;;5033588;28;20037;-38
2021/11/10 08:44:51;;;;;;;13.65;7.18;;;7.00;99.90;;;;;;5035052;28;20029;-41
2021/11/10 08:47:19;;;;;;;13.15;7.78;;;7.20;99.90;;;;;;5034742;28;20029;-38
2021/11/10 08:49:45;;;;;;;12.75;8.18;;;7.30;99.90;;;;;;5034729;28;20029;-37
2021/11/10 08:52:11;;;;;;;15.10;8.30;;;7.40;99.90;;;;;;5034708;28;20029;-38
2021/11/10 08:54:36;;;;;;;12.75;7.63;;;7.50;99.90;;;;;;5034545;28;20033;-43
2021/11/10 08:57:02;;;;;;;11.98;6.90;;;7.70;99.90;;;;;;5033373;28;20066;-40
2021/11/10 08:59:28;;;;;;;8.65;6.22;;;7.80;99.90;;;;;;5034526;28;20021;-38
2021/11/10 09:01:54;;;;;;;11.60;6.70;;;8.00;99.90;;;;;;5034528;28;20024;-39
2021/11/10 09:04:21;;;;;;;15.80;9.23;;;8.10;99.90;;;;;;5034462;28;20040;-40
2021/11/10 09:06:48;;;;;;;12.18;7.88;;;8.10;99.90;;;;;;5034571;28;20032;-38
2021/11/10 09:09:15;;;;;;;11.07;6.80;;;8.30;99.90;;;;;;5034632;28;20032;-41
2021/11/10 09:11:42;;;;;;;12.50;7.53;;;8.50;99.90;;;;;;5032901;28;20029;-39
2021/11/10 09:14:08;;;;;;;14.25;7.88;;;8.60;99.90;;;;;;5034195;28;20531;-40
2021/11/10 09:16:34;;;;;;;12.45;7.68;;;8.70;99.90;;;;;;5034206;28;20041;-45
2021/11/10 09:19:00;;;;;;;12.68;7.85;;;8.80;99.90;;;;;;5034168;28;20021;-39
2021/11/10 09:21:26;;;;;;;13.35;8.23;;;8.80;99.90;;;;;;5034124;28;20040;-38
2021/11/10 09:23:52;;;;;;;11.82;7.05;;;8.80;99.90;;;;;;5034189;28;20490;-41
2021/11/10 09:26:17;;;;;;;12.20;7.38;;;9.00;99.90;;;;;;5032829;28;20029;-38
2021/11/10 09:28:43;;;;;;;14.15;7.55;;;9.00;99.90;;;;;;5034046;28;20560;-39
2021/11/10 09:31:09;;;;;;;12.25;8.13;;;9.00;99.90;;;;;;5034249;28;20088;-38
2021/11/10 09:33:39;;;;;;;10.38;6.90;;;9.10;99.90;;;;;;5033623;28;20113;-38
2021/11/10 09:36:05;;;;;;;12.63;7.55;;;9.10;99.90;;;;;;5033890;28;20485;-37
2021/11/10 09:38:30;;;;;;;14.85;9.48;;;9.20;99.90;;;;;;5033805;28;20028;-37
2021/11/10 09:41:00;;;;;;;13.13;8.77;;;9.20;99.90;;;;;;5032511;28;20026;-37
2021/11/10 09:43:34;;;;;;;13.00;8.57;;;9.20;99.90;;;;;;5033685;28;20023;-39
2021/11/10 09:46:00;;;;;;;14.43;8.15;;;9.20;99.90;;;;;;5033625;28;20018;-38
2021/11/10 09:48:26;;;;;;;15.30;9.75;;;9.20;99.90;;;;;;5033395;28;20100;-37
2021/11/10 09:50:53;;;;;;;16.27;8.85;;;9.30;99.90;;;;;;5033700;28;20559;-38
2021/11/10 09:53:19;;;;;;;14.35;8.50;;;9.30;99.90;;;;;;5033586;28;20053;-42
2021/11/10 09:55:45;;;;;;;13.38;7.63;;;9.30;99.90;;;;;;5032231;28;20029;-43
2021/11/10 09:58:12;;;;;;;14.82;8.32;;;9.30;99.90;;;;;;5033448;28;20528;-41
2021/11/10 10:00:45;;;;;;;12.77;8.38;;;9.20;99.90;;;;;;5033192;28;20473;-40
2021/11/10 10:03:11;;;;;;;11.02;7.80;;;9.10;99.90;;;;;;5033425;28;20100;-41
2021/11/10 10:05:38;;;;;;;12.15;6.50;;;9.00;99.90;;;;;;5033305;28;20045;-41
2021/11/10 10:08:05;;;;;;;12.57;7.38;;;9.00;99.90;;;;;;5033277;28;20108;-43
2021/11/10 10:10:32;;;;;;;12.57;6.65;;;9.00;99.90;;;;;;5033151;28;20033;-40
2021/11/10 10:12:59;;;;;;;12.02;7.47;;;9.00;99.90;;;;;;5031906;28;20052;-41
2021/11/10 10:15:27;;;;;;;13.65;8.02;;;9.10;99.90;;;;;;5033089;28;20109;-38
2021/11/10 10:17:58;;;;;;;12.02;7.40;;;9.10;99.90;;;;;;5033099;28;20021;-43
2021/11/10 10:20:30;;;;;;;16.05;8.85;;;9.20;99.90;;;;;;5032991;28;20059;-40
2021/11/10 10:22:59;;;;;;;12.95;7.47;;;9.20;99.90;;;;;;5033078;28;20052;-43
2021/11/10 10:25:45;;;;;;;11.80;7.30;;;9.30;99.90;;;;;;5032898;28;20040;-39
2021/11/10 10:28:12;;;;;;;;;;;9.40;99.90;;;;;;5033449;28;20061;-42
2021/11/10 10:30:43;;;;;;;11.40;6.40;;;9.50;99.90;;;;;;5032860;28;19936;-38
2021/11/10 10:33:15;;;;;;;9.98;6.43;;;9.50;99.90;;;;;;5032785;28;20070;-39
2021/11/10 10:35:51;;;;;;;13.30;7.25;;;9.50;99.90;;;;;;5032753;28;20541;-38
2021/11/10 10:38:25;;;;;;;12.55;7.38;;;9.60;99.90;;;;;;5032721;28;20084;-40
2021/11/10 10:40:55;;;;;;;10.20;7.03;;;9.60;99.90;;;;;;5031492;28;20488;-42
2021/11/10 10:43:23;;;;;;;11.82;7.57;;;9.60;99.90;;;;;;5032775;28;20388;-38
2021/11/10 10:45:53;;;;;;;13.15;8.35;;;9.80;99.90;;;;;;5032622;28;20385;-41
2021/11/10 10:48:24;;;;;;;12.13;8.52;;;9.90;99.90;;;;;;5032748;28;20492;-38
2021/11/10 10:51:03;;;;;;;11.65;8.20;;;10.00;99.90;;;;;;5032478;28;20035;-39
2021/11/10 10:53:52;;;;;;;12.15;7.78;;;10.20;99.90;;;;;;5032635;28;20053;-38
2021/11/10 10:56:27;;;;;;;11.13;7.72;;;10.20;99.90;;;;;;5031414;28;20029;-38
2021/11/10 10:58:56;;;;;;;10.93;7.40;;;10.30;99.90;;;;;;5032543;28;20044;-42
2021/11/10 11:01:29;;;;;;;11.57;7.80;;;10.30;99.90;;;;;;5032033;28;20048;-40
2021/11/10 11:04:00;;;;;;;12.40;8.15;;;10.30;99.90;;;;;;5032586;28;20096;-38
2021/11/10 11:06:39;;;;;;;14.77;8.60;;;10.30;99.90;;;;;;5032498;28;20034;-37
2021/11/10 11:09:25;;;;;;;10.77;7.03;;;10.30;99.90;;;;;;5032457;28;20030;-40
2021/11/10 11:11:57;;;;;;;13.30;7.78;;;10.20;99.90;;;;;;5031154;28;20525;-38
2021/11/10 11:17:22;;;;;;;11.70;7.35;;;10.10;99.90;;;;;;5032565;28;20059;-38
2021/11/10 11:19:56;;;;;;;17.45;10.07;;;10.10;99.90;;;;;;5032282;28;20346;-38
2021/11/10 11:22:23;;;;;;;15.68;9.27;;;10.00;99.90;;;;;;5032468;28;20083;-38
2021/11/10 11:24:49;;;;;;;14.05;8.85;;;10.00;99.90;;;;;;5032506;28;20039;-41
2021/11/10 11:27:29;;;;;;;14.00;8.25;;;10.00;99.90;;;;;;5031001;28;20021;-38
2021/11/10 11:30:05;;;;;;;13.55;8.52;;;10.00;99.90;;;;;;5032406;28;20487;-38
2021/11/10 11:32:32;;;;;;;13.48;9.00;;;9.90;99.90;;;;;;5030715;28;20053;-38
2021/11/10 11:35:02;;;;;;;14.15;8.18;;;9.90;99.90;;;;;;5032259;28;20064;-38
2021/11/10 11:37:28;;;;;;;16.00;9.13;;;9.90;99.90;;;;;;5031035;28;20112;-38
2021/11/10 11:39:55;;;;;;;12.70;7.28;;;9.90;99.90;;;;;;5032201;28;20097;-42
2021/11/10 11:42:22;;;;;;;15.18;8.75;;;9.90;99.90;;;;;;5031014;28;20028;-41
2021/11/10 11:44:49;;;;;;;9.90;6.75;;;9.80;99.90;;;;;;5032014;28;20546;-44
2021/11/10 11:47:18;;;;;;;13.88;8.18;;;9.90;99.90;;;;;;5032101;28;20029;-43
2021/11/10 11:49:45;;;;;;;14.90;8.70;;;9.80;99.90;;;;;;5032029;28;20029;-42
2021/11/10 11:52:13;;;;;;;14.10;7.88;;;9.80;99.90;;;;;;5032212;28;20041;-44
2021/11/10 11:54:46;;;;;;;11.32;7.00;;;9.80;99.90;;;;;;5031827;28;20030;-38
2021/11/10 11:57:16;;;;;;;12.35;7.40;;;9.80;99.90;;;;;;5030710;28;20432;-43
2021/11/10 11:59:43;;;;;;;12.40;7.50;;;9.80;99.90;;;;;;5031844;28;20614;-40
2021/11/10 12:02:31;;;;;;;16.80;9.90;;;9.70;99.90;;;;;;5032041;28;20037;-38
2021/11/10 12:04:57;;;;;;;14.75;9.00;;;9.60;99.90;;;;;;5031916;28;20028;-42
2021/11/10 12:07:45;;;;;;;14.55;8.38;;;9.60;99.90;;;;;;5031943;28;20017;-49
2021/11/10 12:10:23;;;;;;;12.88;8.70;;;9.60;99.90;;;;;;5031954;28;20114;-41
2021/11/10 12:13:04;;;;;;;14.18;9.02;;;9.50;99.90;;;;;;5032551;28;20038;-38
2021/11/10 12:16:01;;;;;;;15.52;8.57;;;9.50;99.90;;;;;;5035331;28;20026;-41
2021/11/10 12:18:40;;;;;;;13.80;7.68;;;9.50;99.90;;;;;;5035293;28;20036;-38
2021/11/10 12:21:06;;;;;;;13.13;8.35;;;9.50;99.90;;;;;;5035383;28;20053;-40
2021/11/10 12:23:50;;;;;;;14.95;8.90;;;9.50;99.90;;;;;;5035268;28;20408;-41
2021/11/10 12:26:17;;;;;;;13.35;9.32;;;9.40;99.90;;;;;;5034029;28;20032;-41
2021/11/10 12:28:47;;;;;;;16.42;9.55;;;9.40;99.90;;;;;;5034971;28;20029;-40
2021/11/10 12:31:32;;;;;;;15.77;7.97;;;9.30;99.90;;;;;;5035170;28;20017;-38
2021/11/10 12:34:25;;;;;;;14.93;8.30;;;9.30;99.90;;;;;;5035040;28;20049;-37
2021/11/10 12:37:03;;;;;;;16.75;9.80;;;9.20;99.90;;;;;;5026769;28;20123;-39
2021/11/10 12:39:39;;;;;;;14.68;9.52;;;9.20;99.90;;;;;;5034909;28;20040;-38
2021/11/10 12:42:11;;;;;;;13.10;7.90;;;9.20;99.90;;;;;;5033724;28;20157;-38
2021/11/10 12:44:50;;;;;;;12.10;7.95;;;9.20;99.90;;;;;;5034814;28;20044;-42
2021/11/10 12:47:36;;;;;;;13.77;8.05;;;9.20;99.90;;;;;;5034920;28;20029;-38
2021/11/10 12:50:34;;;;;;;13.75;8.02;;;9.20;99.90;;;;;;5034778;28;20120;-39
2021/11/10 12:53:04;;;;;;;13.77;7.90;;;9.10;99.90;;;;;;5034932;28;20196;-40
2021/11/10 12:55:33;;;;;;;16.05;9.30;;;9.10;99.90;;;;;;5034657;28;20096;-38